Time;durP1;ratioP1;P1;durP2;ratioP2;P2;SDS_P1;SDS_P2;PMS_P1;PMS_P2;Temp;Humidity;BMP_temperature;BMP_pressure;BME280_temperature;BME280_humidity;BME280_pressure;Samples;Min_cycle;Max_cycle;Signal;HPM_P1;HPM_P2
2024/04/09 00:04:00;;;;;;;8.38;3.67;;;;;;;9.93;100.00;97764.06;5041704;28;20206;-74
2024/04/09 00:06:51;;;;;;;6.57;3.33;;;;;;;9.92;100.00;97759.66;5070523;28;20024;-71
2024/04/09 00:10:17;;;;;;;;;;;;;;;;;;;;;
2024/04/09 00:16:08;;;;;;;;;;;;;;;;;;;;;
2024/04/09 00:19:20;;;;;;;4.88;3.63;;;;;;;9.69;100.00;97762.78;5064518;28;20039;-73
2024/04/09 00:22:13;;;;;;;5.97;3.70;;;;;;;9.62;100.00;97756.03;5065822;28;20071;-73
2024/04/09 00:24:53;;;;;;;;;;;;;;;;;;;;;
2024/04/09 00:27:50;;;;;;;6.13;3.70;;;;;;;9.49;100.00;97754.97;5053517;28;20391;-73
2024/04/09 00:36:12;;;;;;;5.10;3.65;;;;;;;9.36;100.00;97762.78;5061524;28;20170;-71
2024/04/09 00:39:22;;;;;;;5.82;4.32;;;;;;;9.21;100.00;97751.13;5067847;28;20029;-72
2024/04/09 00:42:39;;;;;;;6.47;4.10;;;;;;;9.24;100.00;97753.63;5074192;28;20411;-72
2024/04/09 00:46:01;;;;;;;5.40;3.78;;;;;;;9.19;100.00;97763.69;5064837;28;20095;-72
2024/04/09 00:49:19;;;;;;;;;;;;;;;;;;;;;
2024/04/09 00:52:19;;;;;;;;;;;;;;;;;;;;;
2024/04/09 00:55:19;;;;;;;;;;;;;;;;;;;;;
2024/04/09 00:58:14;;;;;;;;;;;;;;;;;;;;;
2024/04/09 01:01:15;;;;;;;;;;;;;;;;;;;;;
2024/04/09 01:04:05;;;;;;;4.10;3.10;;;;;;;9.01;100.00;97753.94;5063334;28;20116;-71
2024/04/09 01:06:59;;;;;;;5.72;3.40;;;;;;;8.86;100.00;97754.75;5073391;28;20209;-72
2024/04/09 01:09:53;;;;;;;6.22;3.33;;;;;;;8.79;100.00;97752.50;5056825;28;20036;-72
2024/04/09 01:12:45;;;;;;;8.07;3.30;;;;;;;8.72;100.00;97754.63;5076962;28;20240;-72
2024/04/09 01:15:33;;;;;;;5.50;3.13;;;;;;;8.68;100.00;97750.38;5055887;28;20044;-73
2024/04/09 01:18:43;;;;;;;5.68;3.60;;;;;;;8.59;100.00;97749.03;5044293;28;20400;-72
2024/04/09 01:24:34;;;;;;;;;;;;;;;;;;;;;
2024/04/09 01:27:22;;;;;;;7.43;3.75;;;;;;;8.45;100.00;97746.22;5072706;28;20540;-72
2024/04/09 01:33:27;;;;;;;7.38;3.30;;;;;;;8.39;100.00;97759.00;5071129;28;20094;-73
2024/04/09 01:36:32;;;;;;;;;;;;;;;;;;;;;
2024/04/09 01:39:30;;;;;;;4.75;3.45;;;;;;;8.23;100.00;97750.84;5080413;28;20046;-72
2024/04/09 01:42:25;;;;;;;5.38;3.30;;;;;;;8.11;100.00;97756.78;5071933;28;20030;-72
2024/04/09 01:45:48;;;;;;;14.10;4.65;;;;;;;8.11;100.00;97748.78;5063266;28;20044;-72
2024/04/09 01:48:26;;;;;;;7.07;4.25;;;;;;;7.99;100.00;97741.41;5088640;28;20484;-72
2024/04/09 01:51:04;;;;;;;12.07;3.88;;;;;;;8.01;100.00;97747.50;5092896;28;20395;-73
2024/04/09 01:54:16;;;;;;;12.25;4.45;;;;;;;7.98;100.00;97732.53;5092534;28;20506;-73
2024/04/09 01:56:49;;;;;;;8.23;4.07;;;;;;;7.91;100.00;97739.09;5026593;28;20474;-72
2024/04/09 01:59:33;;;;;;;8.73;3.97;;;;;;;7.96;100.00;97738.88;5082369;28;20058;-72
2024/04/09 02:02:22;;;;;;;;;;;;;;;;;;;;;
2024/04/09 02:08:57;;;;;;;6.85;4.10;;;;;;;7.99;100.00;97739.63;5092345;28;20047;-72
2024/04/09 02:12:05;;;;;;;6.95;4.40;;;;;;;7.95;100.00;97738.03;5087026;28;20070;-72
2024/04/09 02:14:48;;;;;;;8.15;4.22;;;;;;;8.09;100.00;97740.03;5073613;28;20047;-72
2024/04/09 02:17:55;;;;;;;5.93;3.78;;;;;;;8.05;100.00;97736.66;5072171;28;20517;-73
2024/04/09 02:20:47;;;;;;;6.55;3.60;;;;;;;8.08;100.00;97738.28;5070207;28;20036;-73
2024/04/09 02:23:39;;;;;;;;;;;;;;;;;;;;;
2024/04/09 02:26:49;;;;;;;16.38;4.18;;;;;;;7.88;100.00;97741.03;5092419;28;20032;-73
2024/04/09 02:29:59;;;;;;;6.10;3.83;;;;;;;7.82;100.00;97736.88;5092276;28;20031;-72
2024/04/09 02:33:07;;;;;;;6.45;3.83;;;;;;;7.71;100.00;97741.88;5070433;28;20040;-71
2024/04/09 02:35:45;;;;;;;12.43;4.47;;;;;;;7.72;100.00;97734.75;5090371;28;20040;-72
2024/04/09 02:38:35;;;;;;;6.78;3.78;;;;;;;7.74;100.00;97727.53;5075603;28;20047;-73
2024/04/09 02:45:23;;;;;;;;;;;;;;;;;;;;;
2024/04/09 02:48:19;;;;;;;;;;;;;;;;;;;;;
2024/04/09 02:52:07;;;;;;;;;;;;;;;;;;;;;
2024/04/09 02:54:54;;;;;;;13.07;5.90;;;;;;;7.77;100.00;97748.69;5082686;28;20040;-72
2024/04/09 03:01:26;;;;;;;8.90;4.80;;;;;;;7.64;100.00;97761.72;5065922;28;20055;-72
2024/04/09 03:04:18;;;;;;;8.55;4.70;;;;;;;7.64;100.00;97764.38;5075671;28;20440;-72
2024/04/09 03:07:15;;;;;;;28.60;8.13;;;;;;;7.55;100.00;97743.50;5072359;28;20074;-72
2024/04/09 03:10:25;;;;;;;;;;;;;;;;;;;;;
2024/04/09 03:13:39;;;;;;;26.45;9.55;;;;;;;7.27;100.00;97761.69;5086227;28;20032;-69
2024/04/09 03:16:49;;;;;;;9.10;5.05;;;;;;;7.06;100.00;97753.75;5090922;28;20035;-68
2024/04/09 03:19:39;;;;;;;7.57;3.78;;;;;;;6.98;100.00;97755.88;5072734;28;20028;-73
2024/04/09 03:22:26;;;;;;;8.05;4.90;;;;;;;6.95;100.00;97763.97;5091193;28;20395;-72
2024/04/09 03:25:23;;;;;;;;;;;;;;;;;;;;;
2024/04/09 03:28:18;;;;;;;;;;;;;;;;;;;;;
2024/04/09 03:31:33;;;;;;;;;;;;;;;;;;;;;
2024/04/09 03:34:17;;;;;;;9.48;5.25;;;;;;;6.93;100.00;97760.53;5070761;28;20049;-72
2024/04/09 03:37:04;;;;;;;;;;;;;;;;;;;;;
2024/04/09 03:39:42;;;;;;;23.15;5.60;;;;;;;6.81;100.00;97766.38;5055108;28;20484;-72
2024/04/09 03:42:50;;;;;;;;;;;;;;;;;;;;;
2024/04/09 03:46:05;;;;;;;26.95;11.27;;;;;;;6.90;100.00;97775.75;5047471;28;20048;-70
2024/04/09 03:49:14;;;;;;;10.38;5.00;;;;;;;6.95;100.00;97774.63;5032685;28;20126;-71
2024/04/09 03:51:45;;;;;;;10.35;4.70;;;;;;;6.96;100.00;97770.16;5056756;28;20478;-72
2024/04/09 03:54:37;;;;;;;13.45;5.88;;;;;;;6.95;100.00;97774.63;5069780;28;20032;-72
2024/04/09 04:01:21;;;;;;;16.05;4.60;;;;;;;6.83;100.00;97767.19;5045214;28;20048;-71
2024/04/09 04:04:20;;;;;;;17.35;4.70;;;;;;;6.85;100.00;97772.44;5070068;28;20070;-72
2024/04/09 04:07:12;;;;;;;;;;;;;;;;;;;;;
2024/04/09 04:10:13;;;;;;;11.00;4.88;;;;;;;6.82;100.00;97776.09;5068581;28;20128;-73
2024/04/09 04:13:18;;;;;;;14.35;5.28;;;;;;;6.82;100.00;97781.41;5051498;28;20523;-70
2024/04/09 04:16:09;;;;;;;10.27;4.50;;;;;;;6.98;100.00;97782.44;5049870;28;20047;-71
2024/04/09 04:18:58;;;;;;;10.15;4.47;;;;;;;7.06;100.00;97788.31;5071503;28;20051;-71
2024/04/09 04:22:07;;;;;;;11.32;4.85;;;;;;;7.04;100.00;97779.53;5071946;28;20410;-71
2024/04/09 04:25:03;;;;;;;9.40;4.57;;;;;;;7.12;100.00;97778.34;5088224;28;20052;-71
2024/04/09 04:27:44;;;;;;;22.95;7.97;;;;;;;7.31;100.00;97779.25;5076039;28;20032;-71
2024/04/09 04:30:22;;;;;;;22.15;7.50;;;;;;;7.49;100.00;97789.03;5069826;28;20135;-70
2024/04/09 04:33:19;;;;;;;25.90;9.25;;;;;;;7.56;100.00;97771.88;5094065;28;20062;-71
2024/04/09 04:36:12;;;;;;;;;;;;;;;;;;;;;
2024/04/09 04:38:53;;;;;;;21.02;7.15;;;;;;;7.72;100.00;97788.81;5091837;28;20125;-69
2024/04/09 04:41:31;;;;;;;14.15;7.20;;;;;;;7.76;100.00;97789.56;5077882;28;20443;-71
2024/04/09 04:47:23;;;;;;;30.48;8.57;;;;;;;7.77;100.00;97781.50;5033382;28;20131;-71
2024/04/09 04:50:34;;;;;;;21.42;7.22;;;;;;;7.84;100.00;97782.97;5054907;28;20060;-71
2024/04/09 04:53:07;;;;;;;20.92;7.45;;;;;;;7.99;100.00;97786.69;5070377;28;20041;-71
2024/04/09 04:56:35;;;;;;;22.42;7.78;;;;;;;8.05;100.00;97781.94;5054990;28;20111;-72
2024/04/09 05:02:37;;;;;;;29.33;8.10;;;;;;;8.07;100.00;97796.03;5042997;28;20178;-70
2024/04/09 05:05:51;;;;;;;13.20;7.30;;;;;;;8.26;100.00;97795.13;5064603;28;20170;-71
2024/04/09 05:09:07;;;;;;;19.88;7.22;;;;;;;8.39;100.00;97798.97;5064460;28;20032;-70
2024/04/09 05:11:58;;;;;;;31.50;8.63;;;;;;;8.39;100.00;97794.50;5080184;28;20109;-71
2024/04/09 05:15:16;;;;;;;29.73;7.13;;;;;;;8.87;100.00;97801.84;5093323;28;20066;-70
2024/04/09 05:18:09;;;;;;;;;;;;;;;;;;;;;
2024/04/09 05:21:27;;;;;;;28.50;8.07;;;;;;;9.31;100.00;97791.53;5077908;28;20054;-73
2024/04/09 05:24:26;;;;;;;19.48;7.78;;;;;;;9.58;100.00;97791.84;5090031;28;20040;-74
2024/04/09 05:27:41;;;;;;;19.92;7.20;;;;;;;9.86;100.00;97792.06;5092766;28;20056;-73
2024/04/09 05:30:49;;;;;;;18.52;7.65;;;;;;;9.94;100.00;97784.47;5092799;28;20023;-73
2024/04/09 05:43:28;;;;;;;13.35;6.45;;;;;;;14.15;100.00;97742.91;5045536;28;20052;-73
2024/04/09 05:46:39;;;;;;;;;;;;;;;;;;;;;
2024/04/09 05:49:27;;;;;;;;;;;;;;;;;;;;;
2024/04/09 05:52:36;;;;;;;20.23;7.13;;;;;;;17.40;85.23;97719.38;5092298;28;20024;-74
2024/04/09 05:58:47;;;;;;;23.42;7.13;;;;;;;17.74;79.28;97710.06;5078321;28;20105;-72
2024/04/09 06:01:37;;;;;;;;;;;;;;;;;;;;;
2024/04/09 06:07:30;;;;;;;;;;;;;;;;;;;;;
2024/04/09 06:11:04;;;;;;;;;;;;;;;;;;;;;
2024/04/09 06:17:20;;;;;;;16.75;7.85;;;;;;;22.64;52.26;97681.34;5051218;28;20043;-72
2024/04/09 06:20:48;;;;;;;;;;;;;;;;;;;;;
2024/04/09 06:33:50;;;;;;;10.95;6.03;;;;;;;21.95;53.02;97697.91;4974547;28;20038;-72
2024/04/09 06:36:53;;;;;;;20.40;5.45;;;;;;;22.88;50.53;97705.13;4989664;28;20045;-73
2024/04/09 06:43:14;;;;;;;15.63;4.40;;;;;;;24.38;48.03;97694.41;5054017;28;20119;-71
2024/04/09 06:46:17;;;;;;;11.90;4.60;;;;;;;24.33;47.40;97699.56;5058809;28;20056;-71
2024/04/09 06:49:21;;;;;;;;;;;;;;;;;;;;;
2024/04/09 06:58:40;;;;;;;;;;;;;;;;;;;;;
2024/04/09 07:05:15;;;;;;;5.30;2.97;;;;;;;24.83;43.44;97682.72;5066879;28;20040;-72
2024/04/09 07:08:16;;;;;;;7.53;3.25;;;;;;;26.50;40.66;97667.78;5072655;28;20522;-71
2024/04/09 07:14:40;;;;;;;15.60;3.30;;;;;;;27.32;39.37;97663.66;5082090;28;20051;-72
2024/04/09 07:17:26;;;;;;;18.80;4.68;;;;;;;27.10;39.98;97659.22;5081376;28;20050;-72
2024/04/09 07:20:20;;;;;;;9.77;3.90;;;;;;;27.75;38.74;97645.22;5077555;28;20035;-73
2024/04/09 07:23:13;;;;;;;6.65;3.90;;;;;;;27.55;38.90;97655.22;5061836;28;20056;-72
2024/04/09 07:26:08;;;;;;;10.45;4.20;;;;;;;28.56;37.57;97640.84;5107420;28;20042;-72
2024/04/09 07:29:28;;;;;;;14.98;3.72;;;;;;;27.59;37.81;97642.78;5079440;28;20039;-70
2024/04/09 07:35:09;;;;;;;7.80;3.28;;;;;;;28.19;35.87;97626.50;5060998;28;20133;-72
2024/04/09 07:37:54;;;;;;;;;;;;;;;;;;;;;
2024/04/09 07:44:51;;;;;;;;;;;;;;;;;;;;;
2024/04/09 07:50:59;;;;;;;9.35;4.95;;;;;;;31.65;32.60;97625.47;5046140;28;20039;-73
2024/04/09 07:54:06;;;;;;;8.45;5.35;;;;;;;31.45;33.21;97621.97;5039322;28;20098;-71
2024/04/09 08:01:01;;;;;;;;;;;;;;;;;;;;;
2024/04/09 08:03:26;;;;;;;7.75;3.92;;;;;;;31.06;34.34;97628.63;5094477;28;20070;-71
2024/04/09 08:06:10;;;;;;;;;;;;;;;;;;;;;
2024/04/09 08:09:09;;;;;;;13.27;3.50;;;;;;;31.62;34.11;97618.44;5090171;28;20050;-72
2024/04/09 08:11:54;;;;;;;4.10;2.70;;;;;;;31.08;34.41;97624.56;5070204;28;20071;-73
2024/04/09 08:14:35;;;;;;;8.23;3.10;;;;;;;30.37;34.86;97618.28;5090181;28;20407;-72
2024/04/09 08:17:29;;;;;;;13.07;4.95;;;;;;;30.42;35.47;97614.91;5088648;28;20063;-73
2024/04/09 08:20:12;;;;;;;11.73;3.92;;;;;;;30.28;35.63;97615.97;5073659;28;20036;-73
2024/04/09 08:23:04;;;;;;;;;;;;;;;;;;;;;
2024/04/09 08:29:03;;;;;;;;;;;;;;;;;;;;;
2024/04/09 08:31:50;;;;;;;;;;;;;;;;;;;;;
2024/04/09 08:34:26;;;;;;;4.57;2.72;;;;;;;32.40;30.98;97591.03;5070307;28;20020;-72
2024/04/09 08:40:42;;;;;;;;;;;;;;;;;;;;;
2024/04/09 08:43:44;;;;;;;15.00;2.70;;;;;;;31.71;31.03;97584.97;5069883;28;20033;-70
2024/04/09 08:46:31;;;;;;;6.82;3.05;;;;;;;33.22;30.31;97586.75;5069892;28;20376;-71
2024/04/09 08:49:18;;;;;;;5.43;2.30;;;;;;;35.12;28.16;97576.69;5069852;28;20024;-72
2024/04/09 08:58:18;;;;;;;4.05;2.30;;;;;;;32.33;29.41;97558.97;5041061;28;20040;-72
2024/04/09 09:01:16;;;;;;;2.70;1.70;;;;;;;32.87;29.24;97556.13;5056360;28;20089;-72
2024/04/09 09:10:31;;;;;;;3.33;1.60;;;;;;;33.15;28.94;97555.50;5073207;28;20048;-71
2024/04/09 09:13:35;;;;;;;4.90;1.63;;;;;;;32.85;29.41;97540.81;5072475;28;20028;-71
2024/04/09 09:16:41;;;;;;;;;;;;;;;;;;;;;
2024/04/09 09:19:40;;;;;;;3.13;1.50;;;;;;;32.99;28.06;97531.19;5072691;28;20403;-72
2024/04/09 09:22:51;;;;;;;;;;;;;;;;;;;;;
2024/04/09 09:31:56;;;;;;;2.13;1.50;;;;;;;35.37;24.39;97510.38;5072658;28;20058;-71
2024/04/09 09:34:34;;;;;;;1.42;1.30;;;;;;;33.18;25.21;97500.41;5074940;28;20031;-72
2024/04/09 09:37:34;;;;;;;;;;;;;;;;;;;;;
2024/04/09 09:40:31;;;;;;;;;;;;;;;;;;;;;
2024/04/09 09:43:45;;;;;;;;;;;;;;;;;;;;;
2024/04/09 09:46:58;;;;;;;0.85;0.80;;;;;;;36.51;21.17;97486.41;5091801;28;20040;-71
2024/04/09 09:49:50;;;;;;;;;;;;;;;;;;;;;
2024/04/09 09:52:52;;;;;;;0.68;0.60;;;;;;;34.56;21.64;97472.69;5075572;28;20028;-71
2024/04/09 09:55:53;;;;;;;;;;;;;;;;;;;;;
2024/04/09 10:02:10;;;;;;;;;;;;;;;;;;;;;
2024/04/09 10:08:50;;;;;;;3.22;1.80;;;;;;;38.33;19.19;97448.81;5066053;28;20043;-71
2024/04/09 10:12:01;;;;;;;;;;;;;;;;;;;;;
2024/04/09 10:18:21;;;;;;;;;;;;;;;;;;;;;
2024/04/09 10:21:17;;;;;;;3.08;1.33;;;;;;;36.72;19.94;97440.09;5077894;28;20227;-71
2024/04/09 10:27:17;;;;;;;1.25;0.90;;;;;;;35.41;21.16;97435.56;5029522;28;20148;-71
2024/04/09 10:33:16;;;;;;;1.17;1.00;;;;;;;37.79;20.56;97432.31;5029127;28;20033;-71
2024/04/09 10:36:27;;;;;;;2.72;1.50;;;;;;;37.27;20.46;97423.00;5029324;28;20448;-71
2024/04/09 10:43:05;;;;;;;;;;;;;;;;;;;;;
2024/04/09 10:46:09;;;;;;;2.35;0.90;;;;;;;37.27;21.30;97411.84;5091493;28;20028;-71
2024/04/09 10:49:09;;;;;;;4.38;1.33;;;;;;;38.37;20.93;97406.06;5082522;28;20035;-71
2024/04/09 10:55:03;;;;;;;5.88;1.15;;;;;;;37.60;21.07;97405.94;5075788;28;20114;-71
2024/04/09 10:58:03;;;;;;;1.27;0.93;;;;;;;37.90;20.88;97413.69;5087044;28;20535;-70
2024/04/09 11:00:47;;;;;;;1.63;1.10;;;;;;;38.10;20.77;97404.53;5078786;28;20132;-71
2024/04/09 11:07:04;;;;;;;;;;;;;;;;;;;;;
2024/04/09 11:10:10;;;;;;;;;;;;;;;;;;;;;
2024/04/09 11:13:30;;;;;;;3.55;1.10;;;;;;;35.73;21.58;97394.84;5091038;28;20491;-71
2024/04/09 11:16:07;;;;;;;2.22;1.02;;;;;;;36.97;21.39;97400.41;5065090;28;20545;-71
2024/04/09 11:18:49;;;;;;;1.02;0.90;;;;;;;37.61;20.75;97388.09;5072485;28;20043;-72
2024/04/09 11:25:56;;;;;;;;;;;;;;;;;;;;;
2024/04/09 11:28:24;;;;;;;;;;;;;;;;;;;;;
2024/04/09 11:31:33;;;;;;;1.08;0.98;;;;;;;37.04;20.54;97371.19;5055350;28;20028;-71
2024/04/09 11:34:17;;;;;;;1.00;0.90;;;;;;;34.77;22.25;97368.28;4966125;28;20041;-72
2024/04/09 11:37:38;;;;;;;2.30;0.88;;;;;;;34.97;22.37;97373.34;4994514;28;20029;-72
2024/04/09 11:40:24;;;;;;;0.80;0.80;;;;;;;36.16;21.63;97360.56;5048528;28;20040;-71
2024/04/09 11:42:59;;;;;;;3.25;2.35;;;;;;;36.50;21.92;97370.41;5053388;28;20155;-72
2024/04/09 11:45:49;;;;;;;4.03;1.60;;;;;;;38.54;20.26;97355.47;5052276;28;20089;-72
2024/04/09 11:48:49;;;;;;;;;;;;;;;;;;;;;
2024/04/09 11:55:14;;;;;;;1.90;0.80;;;;;;;39.87;19.90;97335.47;5070033;28;20047;-71
2024/04/09 11:57:53;;;;;;;1.30;1.00;;;;;;;40.04;20.00;97336.78;5070126;28;20057;-72
2024/04/09 12:01:00;;;;;;;;;;;;;;;;;;;;;
2024/04/09 12:07:19;;;;;;;1.48;0.70;;;;;;;40.05;19.73;97326.41;5069984;28;20028;-72
2024/04/09 12:10:29;;;;;;;1.08;0.80;;;;;;;40.37;19.31;97328.75;5069923;28;20056;-72
2024/04/09 12:13:19;;;;;;;1.75;1.00;;;;;;;40.43;19.53;97321.97;5045107;28;20110;-71
2024/04/09 12:16:27;;;;;;;;;;;;;;;;;;;;;
2024/04/09 12:19:10;;;;;;;4.07;2.40;;;;;;;41.22;19.37;97317.97;5007018;28;20044;-71
2024/04/09 12:22:02;;;;;;;4.43;1.30;;;;;;;40.64;19.28;97308.66;5034699;28;20467;-71
2024/04/09 12:28:06;;;;;;;0.98;0.90;;;;;;;39.27;19.88;97302.88;5077379;28;20032;-71
2024/04/09 12:31:04;;;;;;;;;;;;;;;;;;;;;
2024/04/09 12:40:48;;;;;;;0.85;0.85;;;;;;;40.77;19.22;97285.53;5062578;28;20060;-71
2024/04/09 12:43:32;;;;;;;;;;;;;;;;;;;;;
2024/04/09 12:50:13;;;;;;;4.80;0.98;;;;;;;36.89;22.35;97281.78;5078040;28;20040;-71
2024/04/09 12:56:19;;;;;;;0.93;0.90;;;;;;;37.41;21.84;97265.06;5025584;28;20079;-71
2024/04/09 12:59:18;;;;;;;0.70;0.70;;;;;;;37.33;21.62;97260.03;5113797;28;20019;-71
2024/04/09 13:02:18;;;;;;;2.88;1.00;;;;;;;38.20;21.42;97262.84;5113606;28;20023;-71
2024/04/09 13:05:22;;;;;;;1.20;1.05;;;;;;;37.10;22.30;97255.72;5095406;28;20020;-71
2024/04/09 13:08:07;;;;;;;3.00;0.93;;;;;;;37.56;22.20;97245.66;5111880;27;20042;-71
2024/04/09 13:10:48;;;;;;;4.50;1.00;;;;;;;38.21;22.01;97246.94;5096948;28;20027;-71
2024/04/09 13:13:47;;;;;;;5.65;1.00;;;;;;;37.49;21.25;97249.78;5073994;28;20119;-71
2024/04/09 13:20:14;;;;;;;46.95;36.38;;;;;;;36.13;22.07;97246.88;5074253;28;20069;-72
2024/04/09 13:22:58;;;;;;;4.40;0.98;;;;;;;35.58;22.81;97247.94;5092656;28;20111;-72
2024/04/09 13:26:00;;;;;;;3.97;1.45;;;;;;;36.47;22.12;97250.22;5065360;28;20052;-72
2024/04/09 13:28:49;;;;;;;4.72;1.60;;;;;;;36.19;22.06;97243.00;5035062;28;20271;-72
2024/04/09 13:31:53;;;;;;;;;;;;;;;;;;;;;
2024/04/09 13:35:09;;;;;;;;;;;;;;;;;;;;;
2024/04/09 13:37:59;;;;;;;8.15;1.70;;;;;;;36.44;21.75;97234.88;5035036;28;20031;-71
2024/04/09 13:41:52;;;;;;;2.17;1.83;;;;;;;35.69;22.33;97244.16;5035394;28;20045;-70
2024/04/09 13:44:55;;;;;;;;;;;;;;;;;;;;;
2024/04/09 13:47:31;;;;;;;1.10;0.95;;;;;;;35.04;22.89;97238.56;4952024;29;20038;-70
2024/04/09 14:01:06;;;;;;;4.57;1.27;;;;;;;35.69;22.98;97221.88;5069680;28;20473;-70
2024/04/09 14:04:22;;;;;;;;;;;;;;;;;;;;;
2024/04/09 14:10:38;;;;;;;;;;;;;;;;;;;;;
2024/04/09 14:16:32;;;;;;;1.48;1.30;;;;;;;32.48;24.56;97226.97;5056964;28;20039;-71
2024/04/09 14:22:46;;;;;;;4.07;1.33;;;;;;;32.66;25.44;97232.44;5054768;28;20569;-70
2024/04/09 14:26:17;;;;;;;2.97;1.52;;;;;;;31.72;26.10;97229.75;5054920;28;20047;-71
2024/04/09 14:32:09;;;;;;;3.28;0.88;;;;;;;30.01;27.39;97235.25;5076816;28;20078;-71
2024/04/09 14:35:00;;;;;;;2.40;1.30;;;;;;;29.42;28.08;97237.56;5052548;28;20107;-71
2024/04/09 14:37:32;;;;;;;1.70;1.13;;;;;;;28.90;28.58;97233.13;5073930;28;20034;-71
2024/04/09 14:40:49;;;;;;;4.95;1.05;;;;;;;28.48;29.99;97238.09;5091040;28;20047;-72
2024/04/09 14:46:42;;;;;;;1.30;0.98;;;;;;;27.80;30.29;97235.78;5091428;28;20576;-71
2024/04/09 14:49:54;;;;;;;;;;;;;;;;;;;;;
2024/04/09 14:53:11;;;;;;;;;;;;;;;;;;;;;
2024/04/09 14:56:15;;;;;;;1.65;0.98;;;;;;;26.80;30.69;97232.94;5087774;28;20050;-72
2024/04/09 15:03:13;;;;;;;2.05;1.17;;;;;;;26.38;31.19;97229.31;5028633;28;20137;-70
2024/04/09 15:06:13;;;;;;;29.02;18.63;;;;;;;26.06;31.39;97240.00;5084288;28;20036;-72
2024/04/09 15:08:47;;;;;;;1.67;1.20;;;;;;;26.06;31.34;97238.13;5091083;28;20024;-72
2024/04/09 15:18:05;;;;;;;;;;;;;;;;;;;;;
2024/04/09 15:20:40;;;;;;;5.05;1.30;;;;;;;25.83;31.88;97245.75;5075192;28;20494;-71
2024/04/09 15:23:31;;;;;;;1.17;0.95;;;;;;;25.78;32.33;97248.22;5090638;28;20038;-72
2024/04/09 15:26:22;;;;;;;6.60;3.95;;;;;;;25.70;32.27;97237.41;5074365;28;20046;-72
2024/04/09 15:29:20;;;;;;;3.30;1.17;;;;;;;25.68;32.27;97247.72;5089928;28;20051;-71
2024/04/09 15:32:14;;;;;;;;;;;;;;;;;;;;;
2024/04/09 15:35:06;;;;;;;12.95;4.93;;;;;;;25.54;31.67;97232.19;5086676;28;20114;-71
2024/04/09 15:38:05;;;;;;;5.80;3.73;;;;;;;25.48;31.62;97241.16;5080707;28;20070;-71
2024/04/09 15:40:52;;;;;;;;;;;;;;;;;;;;;
2024/04/09 15:43:45;;;;;;;3.35;1.65;;;;;;;25.27;32.40;97245.59;5089058;28;20038;-73
2024/04/09 15:46:28;;;;;;;2.58;1.23;;;;;;;25.12;32.38;97253.00;5071291;28;20492;-72
2024/04/09 15:49:24;;;;;;;5.90;1.40;;;;;;;25.07;33.23;97255.44;5072428;28;20050;-71
2024/04/09 15:52:29;;;;;;;2.75;1.85;;;;;;;24.98;32.95;97262.06;5055172;28;20039;-70
2024/04/09 16:04:42;;;;;;;3.55;1.25;;;;;;;24.45;34.38;97256.94;5074942;28;20051;-71
2024/04/09 16:11:08;;;;;;;2.20;1.15;;;;;;;24.26;34.85;97272.88;5068297;28;20048;-72
2024/04/09 16:14:13;;;;;;;5.05;2.63;;;;;;;24.10;35.46;97270.25;5036814;28;20540;-72
2024/04/09 16:24:42;;;;;;;;;;;;;;;;;;;;;
2024/04/09 16:27:36;;;;;;;6.55;2.40;;;;;;;23.45;35.95;97269.13;5077541;28;20074;-70
2024/04/09 16:30:14;;;;;;;6.88;1.52;;;;;;;23.30;36.21;97284.53;5077539;28;20047;-71
2024/04/09 16:33:09;;;;;;;;;;;;;;;;;;;;;
2024/04/09 16:39:35;;;;;;;;;;;;;;;;;;;;;
2024/04/09 16:42:11;;;;;;;9.63;4.25;;;;;;;22.66;37.64;97301.09;5089407;28;20043;-70
2024/04/09 16:45:03;;;;;;;;;;;;;;;;;;;;;
2024/04/09 16:48:20;;;;;;;3.35;1.70;;;;;;;22.37;38.13;97303.53;5089059;28;20034;-71
2024/04/09 16:51:16;;;;;;;;;;;;;;;;;;;;;
2024/04/09 16:53:55;;;;;;;8.27;1.65;;;;;;;22.01;39.47;97308.53;5087874;28;20015;-70
2024/04/09 16:57:07;;;;;;;3.42;1.75;;;;;;;21.96;39.41;97304.63;5077443;28;20077;-70
2024/04/09 16:59:49;;;;;;;4.18;2.00;;;;;;;21.86;39.28;97315.66;5113885;28;20038;-71
2024/04/09 17:08:57;;;;;;;6.40;2.35;;;;;;;21.34;42.19;97330.59;5034894;28;20032;-71
2024/04/09 17:14:52;;;;;;;6.88;2.40;;;;;;;20.90;44.80;97344.38;5079524;28;20058;-71
2024/04/09 17:18:11;;;;;;;6.90;2.53;;;;;;;20.71;46.27;97351.91;5048622;28;20127;-71
2024/04/09 17:28:08;;;;;;;24.23;8.83;;;;;;;20.11;49.00;97361.91;5078643;28;20043;-72
2024/04/09 17:31:09;;;;;;;7.15;3.42;;;;;;;19.99;50.68;97370.28;5069758;28;20036;-72
2024/04/09 17:35:18;;;;;;;11.18;3.92;;;;;;;19.92;50.44;97369.22;5067768;28;20048;-72
2024/04/09 17:37:36;;;;;;;12.48;3.50;;;;;;;19.75;51.07;97372.78;5065994;28;20044;-72
2024/04/09 17:40:36;;;;;;;11.18;4.18;;;;;;;19.61;52.38;97377.91;5076526;28;20514;-71
2024/04/09 17:43:30;;;;;;;8.27;3.28;;;;;;;19.60;51.85;97389.78;5076854;28;20399;-74
2024/04/09 17:46:03;;;;;;;9.32;3.50;;;;;;;19.58;51.62;97389.94;5074942;28;20046;-73
2024/04/09 17:49:02;;;;;;;;;;;;;;;;;;;;;
2024/04/09 17:52:03;;;;;;;4.78;2.83;;;;;;;19.41;52.88;97393.50;5088359;28;20032;-73
2024/04/09 17:55:20;;;;;;;5.55;2.10;;;;;;;19.38;51.60;97388.38;5088083;28;20020;-72
2024/04/09 17:58:37;;;;;;;6.65;2.10;;;;;;;19.29;52.42;97402.81;5084313;28;20446;-73
2024/04/09 18:01:20;;;;;;;3.20;1.40;;;;;;;19.09;51.33;97398.53;5092313;28;20032;-72
2024/04/09 18:04:17;;;;;;;2.83;1.70;;;;;;;19.21;53.27;97406.31;5092713;28;20039;-72
2024/04/09 18:10:24;;;;;;;;;;;;;;;;;;;;;
2024/04/09 18:13:38;;;;;;;9.55;2.75;;;;;;;18.73;55.18;97411.97;5080908;28;20026;-71
2024/04/09 18:16:50;;;;;;;20.48;11.80;;;;;;;18.52;57.94;97424.03;5092153;28;20037;-72
2024/04/09 18:19:44;;;;;;;4.70;2.30;;;;;;;18.33;57.80;97431.16;5092334;28;20024;-72
2024/04/09 18:22:47;;;;;;;5.50;2.10;;;;;;;18.22;58.29;97438.59;5092008;28;20027;-72
2024/04/09 18:25:32;;;;;;;7.45;2.17;;;;;;;18.07;58.06;97431.91;5079947;28;20123;-77
2024/04/09 18:28:23;;;;;;;9.32;5.22;;;;;;;17.93;61.59;97432.34;5092107;28;20072;-85
2024/04/09 18:31:24;;;;;;;3.90;1.88;;;;;;;17.86;60.30;97435.63;5066037;28;20036;-72
2024/04/09 18:34:20;;;;;;;;;;;;;;;;;;;;;
2024/04/09 18:36:59;;;;;;;;;;;;;;;;;;;;;
2024/04/09 18:40:13;;;;;;;4.75;2.60;;;;;;;17.48;63.12;97437.41;5086953;28;20035;-72
2024/04/09 18:43:30;;;;;;;3.70;2.92;;;;;;;17.33;64.37;97434.25;5081878;28;20105;-73
2024/04/09 18:46:22;;;;;;;3.08;1.90;;;;;;;17.19;66.62;97442.78;5012297;28;20537;-73
2024/04/09 18:48:58;;;;;;;4.78;1.70;;;;;;;16.96;68.75;97434.03;5066824;28;20189;-72
2024/04/09 18:52:04;;;;;;;4.05;1.55;;;;;;;16.87;69.99;97436.69;5101446;28;20041;-71
2024/04/09 18:54:57;;;;;;;6.03;2.00;;;;;;;16.90;69.44;97441.81;5065576;28;20074;-71
2024/04/09 18:58:07;;;;;;;2.47;1.80;;;;;;;16.74;70.54;97445.88;4973868;28;20089;-73
2024/04/09 19:01:08;;;;;;;2.10;1.30;;;;;;;16.63;71.43;97446.00;5084527;28;20063;-73
2024/04/09 19:03:43;;;;;;;2.42;1.42;;;;;;;16.52;72.87;97443.31;5062253;28;20120;-73
2024/04/09 19:06:53;;;;;;;1.50;1.25;;;;;;;16.41;76.74;97448.81;5076232;28;20031;-73
2024/04/09 19:10:04;;;;;;;6.60;2.58;;;;;;;16.36;78.82;97451.06;5067335;28;20529;-73
2024/04/09 19:13:26;;;;;;;;;;;;;;;;;;;;;
2024/04/09 19:16:24;;;;;;;7.47;1.60;;;;;;;16.25;82.76;97467.31;5082019;28;20046;-72
2024/04/09 19:19:17;;;;;;;6.75;1.90;;;;;;;16.14;85.90;97467.41;5048120;28;20427;-72
2024/04/09 19:25:49;;;;;;;7.82;2.42;;;;;;;15.97;85.97;97452.63;5034636;28;20474;-73
2024/04/09 19:31:40;;;;;;;;;;;;;;;;;;;;;
2024/04/09 19:34:17;;;;;;;8.85;2.30;;;;;;;15.86;90.73;97473.41;5037739;28;20036;-74
2024/04/09 19:37:55;;;;;;;3.67;2.28;;;;;;;15.76;92.53;97480.56;5064198;28;20045;-72
2024/04/09 19:40:49;;;;;;;7.70;1.98;;;;;;;15.49;95.34;97481.03;5050182;28;20045;-73
2024/04/09 19:43:37;;;;;;;9.68;2.60;;;;;;;15.36;97.21;97482.97;5066542;28;20649;-73
2024/04/09 19:46:37;;;;;;;18.13;2.15;;;;;;;15.24;99.63;97474.06;5080789;28;20148;-73
2024/04/09 19:49:37;;;;;;;6.15;2.63;;;;;;;15.22;100.00;97486.81;5074478;28;20040;-73
2024/04/09 19:52:55;;;;;;;19.95;2.88;;;;;;;15.05;100.00;97488.19;5074329;28;20028;-74
2024/04/09 19:55:50;;;;;;;;;;;;;;;;;;;;;
2024/04/09 19:58:38;;;;;;;7.38;3.13;;;;;;;14.91;100.00;97493.84;5061626;28;20410;-71
2024/04/09 20:01:32;;;;;;;7.70;2.50;;;;;;;14.83;100.00;97490.88;5051565;28;20032;-71
2024/04/09 20:04:35;;;;;;;3.92;2.50;;;;;;;14.75;100.00;97489.78;5068254;28;20044;-72
2024/04/09 20:07:37;;;;;;;9.82;2.33;;;;;;;14.62;100.00;97493.44;5068163;28;20084;-72
2024/04/09 20:10:58;;;;;;;;;;;;;;;;;;;;;
2024/04/09 20:13:45;;;;;;;6.10;2.22;;;;;;;14.49;100.00;97502.59;5031039;28;20042;-72
2024/04/09 20:16:47;;;;;;;8.00;2.05;;;;;;;14.39;100.00;97493.56;5051172;28;20059;-73
2024/04/09 20:20:16;;;;;;;3.75;2.03;;;;;;;14.39;100.00;97491.72;5066889;28;20028;-72
2024/04/09 20:22:52;;;;;;;5.35;1.92;;;;;;;14.31;100.00;97490.53;5070860;28;20102;-73
2024/04/09 20:26:11;;;;;;;7.43;2.42;;;;;;;14.22;100.00;97494.81;5049259;28;20040;-73
2024/04/09 20:32:14;;;;;;;;;;;;;;;;;;;;;